Time;durP1;ratioP1;P1;durP2;ratioP2;P2;SDS_P1;SDS_P2;PMS_P1;PMS_P2;Temp;Humidity;BMP_temperature;BMP_pressure;BME280_temperature;BME280_humidity;BME280_pressure;Samples;Min_cycle;Max_cycle;Signal;HPM_P1;HPM_P2
2022/09/01 00:01:19;;;;;;;5.10;3.10;;;;;;;11.87;81.56;97006.57;108196;1268;22664;-76
2022/09/01 00:03:51;;;;;;;5.20;2.60;;;;;;;11.78;81.81;97005.70;108178;1268;22597;-75
2022/09/01 00:06:24;;;;;;;4.30;2.50;;;;;;;11.73;82.09;97009.55;108030;1268;25355;-77
2022/09/01 00:08:57;;;;;;;3.60;2.50;;;;;;;11.61;82.33;97005.15;108126;1268;24026;-77
2022/09/01 00:11:29;;;;;;;3.30;2.50;;;;;;;11.55;82.73;97006.74;108118;1268;22539;-77
2022/09/01 00:14:05;;;;;;;4.80;2.40;;;;;;;11.50;82.98;97005.90;108152;1268;23247;-77
2022/09/01 00:16:36;;;;;;;4.60;1.90;;;;;;;11.50;82.95;97007.02;108209;1268;25365;-77
2022/09/01 00:19:10;;;;;;;4.10;2.20;;;;;;;11.57;83.36;97006.84;108180;1268;24517;-77
2022/09/01 00:21:43;;;;;;;4.40;2.10;;;;;;;11.66;83.47;97007.30;108184;1268;25238;-77
2022/09/01 00:24:17;;;;;;;6.70;2.40;;;;;;;11.70;83.19;97008.41;108167;1268;22531;-77
2022/09/01 00:26:48;;;;;;;5.60;2.30;;;;;;;11.79;83.39;97006.70;108199;1268;22532;-77
2022/09/01 00:29:23;;;;;;;2.80;2.10;;;;;;;11.90;83.30;97012.13;107963;1268;24832;-77
2022/09/01 00:31:54;;;;;;;5.70;2.40;;;;;;;11.95;83.10;97008.73;108040;1271;22544;-77
2022/09/01 00:34:25;;;;;;;5.00;2.40;;;;;;;11.97;82.83;97002.84;108029;1268;22558;-77
2022/09/01 00:36:57;;;;;;;5.10;2.20;;;;;;;11.88;82.26;97004.23;108016;1268;22622;-77
2022/09/01 00:39:28;;;;;;;4.00;1.90;;;;;;;11.85;82.19;97004.94;107903;1268;26182;-77
2022/09/01 00:41:59;;;;;;;4.80;2.30;;;;;;;11.89;82.56;97004.91;107987;1268;22553;-77
2022/09/01 00:44:31;;;;;;;4.90;2.30;;;;;;;11.97;82.77;96995.23;108016;1271;22534;-77
2022/09/01 00:47:02;;;;;;;4.40;2.30;;;;;;;11.88;82.35;96998.33;108027;1268;25602;-77
2022/09/01 00:49:38;;;;;;;3.30;2.10;;;;;;;11.72;82.46;96999.25;107956;1271;22491;-77
2022/09/01 00:52:15;;;;;;;5.00;2.60;;;;;;;11.65;82.79;97002.89;107942;1268;22543;-77
2022/09/01 00:54:49;;;;;;;4.20;2.40;;;;;;;11.72;83.48;96999.20;108007;1268;22553;-77
2022/09/01 00:57:20;;;;;;;4.10;2.10;;;;;;;11.82;83.37;96998.73;107958;1268;23962;-77
2022/09/01 00:59:57;;;;;;;4.10;2.50;;;;;;;11.76;82.94;96998.91;107982;1268;22534;-77
2022/09/01 01:02:28;;;;;;;4.80;2.30;;;;;;;11.72;83.14;97000.33;107989;1268;22547;-77
2022/09/01 01:05:01;;;;;;;3.60;2.20;;;;;;;11.75;83.33;96996.68;107982;1267;22688;-77
2022/09/01 01:07:41;;;;;;;4.30;2.10;;;;;;;11.77;83.41;96995.98;107971;1268;31364;-77
2022/09/01 01:10:16;;;;;;;4.40;2.40;;;;;;;11.78;83.50;96995.98;108061;1268;22692;-77
2022/09/01 01:12:49;;;;;;;4.30;2.50;;;;;;;11.61;83.47;96990.81;108052;1268;24288;-77
2022/09/01 01:15:21;;;;;;;6.60;2.70;;;;;;;11.45;83.83;96994.20;108038;1268;24156;-77
2022/09/01 01:17:55;;;;;;;3.40;2.40;;;;;;;11.35;84.04;96991.49;108012;1268;29963;-77
2022/09/01 01:23:25;;;;;;;4.50;2.30;;;;;;;11.46;84.56;96985.60;108059;1268;22518;-77
2022/09/01 01:25:58;;;;;;;5.20;2.20;;;;;;;11.45;84.36;96985.88;107018;1268;1478252;-77
2022/09/01 01:28:31;;;;;;;4.60;2.30;;;;;;;11.40;84.36;96987.39;107931;1268;25098;-76
2022/09/01 01:31:10;;;;;;;5.90;2.20;;;;;;;11.41;84.56;96987.06;108091;1268;24417;-77
2022/09/01 01:33:46;;;;;;;5.90;2.70;;;;;;;11.40;84.58;96983.89;107954;1268;22534;-77
2022/09/01 01:36:24;;;;;;;3.70;2.40;;;;;;;11.30;84.74;96980.64;108007;1268;22525;-77
2022/09/01 01:39:00;;;;;;;3.30;2.10;;;;;;;11.23;84.99;96980.55;107996;1268;25458;-77
2022/09/01 01:41:34;;;;;;;5.00;2.80;;;;;;;11.17;85.25;96977.41;108011;1268;22518;-77
2022/09/01 01:44:06;;;;;;;4.20;2.20;;;;;;;11.13;85.49;96975.58;108067;1268;22628;-77
2022/09/01 01:46:41;;;;;;;3.90;2.00;;;;;;;11.12;85.53;96973.51;108051;1268;22567;-77
2022/09/01 01:49:18;;;;;;;4.10;2.20;;;;;;;11.15;85.49;96977.31;107999;1268;32555;-77
2022/09/01 01:51:53;;;;;;;6.60;2.10;;;;;;;11.25;85.64;96977.48;108077;1268;22607;-78
2022/09/01 01:54:31;;;;;;;4.10;2.20;;;;;;;11.34;85.62;96975.68;108087;1268;25531;-77
2022/09/01 01:57:04;;;;;;;3.50;2.10;;;;;;;11.40;85.55;96981.55;108075;1268;25238;-77
2022/09/01 01:59:37;;;;;;;3.30;1.90;;;;;;;11.33;85.36;96981.32;108073;1268;22534;-76
2022/09/01 02:02:11;;;;;;;3.50;2.00;;;;;;;11.32;85.48;96977.81;108033;1268;25420;-77
2022/09/01 02:04:44;;;;;;;6.20;2.00;;;;;;;11.43;85.60;96977.02;108059;1269;22527;-77
2022/09/01 02:07:16;;;;;;;5.50;1.80;;;;;;;11.51;85.47;96979.19;107969;1268;30427;-77
2022/09/01 02:09:48;;;;;;;2.70;1.20;;;;;;;11.57;85.41;96975.23;108051;1268;23452;-77
2022/09/01 02:12:20;;;;;;;3.70;1.90;;;;;;;11.62;85.12;96976.48;108018;1268;22534;-77
2022/09/01 02:14:53;;;;;;;3.30;1.70;;;;;;;11.55;84.57;96975.45;108115;1268;24449;-77
2022/09/01 02:17:26;;;;;;;7.10;1.90;;;;;;;11.49;84.78;96976.38;108036;1268;23065;-77
2022/09/01 02:19:57;;;;;;;3.10;2.10;;;;;;;11.50;84.99;96975.42;108034;1268;22525;-77
2022/09/01 02:22:28;;;;;;;3.00;1.70;;;;;;;11.50;84.74;96973.25;108047;1268;25408;-77
2022/09/01 02:24:59;;;;;;;3.20;1.80;;;;;;;11.49;84.80;96971.23;108029;1268;23291;-77
2022/09/01 02:27:32;;;;;;;2.00;1.50;;;;;;;11.41;84.68;96972.88;108005;1268;31736;-77
2022/09/01 02:30:09;;;;;;;3.90;1.90;;;;;;;11.30;84.89;96970.35;108091;1268;22709;-77
2022/09/01 02:32:41;;;;;;;3.20;2.10;;;;;;;11.21;85.23;96967.20;108032;1268;22534;-77
2022/09/01 02:35:13;;;;;;;5.10;2.20;;;;;;;11.18;85.33;96968.60;108024;1268;22518;-77
2022/09/01 02:37:45;;;;;;;3.20;1.90;;;;;;;11.18;85.43;96967.79;108003;1268;26952;-77
2022/09/01 02:40:16;;;;;;;3.30;2.00;;;;;;;11.25;85.62;96968.88;108075;1268;24377;-77
2022/09/01 02:42:51;;;;;;;3.70;2.10;;;;;;;11.36;85.74;96971.73;108022;1268;22623;-77
2022/09/01 02:45:23;;;;;;;3.00;1.50;;;;;;;11.45;85.82;96973.08;108023;1268;24242;-77
2022/09/01 02:47:55;;;;;;;2.20;1.50;;;;;;;11.51;85.58;96974.99;108019;1268;32184;-77
2022/09/01 02:50:28;;;;;;;4.70;1.60;;;;;;;11.52;85.58;96969.94;108027;1268;22478;-77
2022/09/01 02:53:00;;;;;;;3.80;1.60;;;;;;;11.52;85.41;96972.59;108008;1268;22711;-77
2022/09/01 02:55:31;;;;;;;5.60;1.70;;;;;;;11.54;85.49;96970.41;108045;1268;22572;-76
2022/09/01 02:58:03;;;;;;;3.40;1.70;;;;;;;11.47;85.17;96972.15;108017;1268;30810;-77
2022/09/01 03:00:38;;;;;;;3.80;1.80;;;;;;;11.43;85.26;96972.14;108048;1268;25840;-77
2022/09/01 03:03:11;;;;;;;2.40;1.70;;;;;;;11.41;85.16;96967.26;108022;1268;22604;-77
2022/09/01 03:05:42;;;;;;;3.30;1.60;;;;;;;11.32;84.97;96967.41;108151;1268;22559;-77
2022/09/01 03:08:15;;;;;;;2.50;1.70;;;;;;;11.30;85.12;96968.27;107960;1268;30219;-77
2022/09/01 03:10:47;;;;;;;2.20;1.50;;;;;;;11.35;85.46;96969.72;107981;1268;22569;-77
2022/09/01 03:13:20;;;;;;;2.60;1.50;;;;;;;11.45;85.70;96973.81;107997;1268;26375;-77
2022/09/01 03:15:51;;;;;;;4.40;1.40;;;;;;;11.54;85.73;96975.36;108009;1268;22564;-77
2022/09/01 03:18:23;;;;;;;2.60;1.40;;;;;;;11.62;85.82;96974.66;107902;1268;30768;-77
2022/09/01 03:20:55;;;;;;;3.20;1.80;;;;;;;11.66;85.66;96970.49;107870;1271;22636;-77
2022/09/01 03:23:26;;;;;;;3.90;1.80;;;;;;;11.65;85.48;96971.83;107972;1268;25519;-77
2022/09/01 03:25:58;;;;;;;3.20;1.60;;;;;;;11.62;85.30;96967.30;107907;1271;22519;-77
2022/09/01 03:28:30;;;;;;;2.80;1.70;;;;;;;11.46;85.13;96968.14;107890;1267;26802;-77
2022/09/01 03:31:01;;;;;;;3.80;1.90;;;;;;;11.20;85.42;96966.20;107968;1268;22546;-77
2022/09/01 03:33:33;;;;;;;3.40;2.30;;;;;;;11.05;85.94;96967.91;107957;1268;22533;-77
2022/09/01 03:36:05;;;;;;;4.90;2.10;;;;;;;11.01;86.28;96971.44;107957;1268;22519;-77
2022/09/01 03:38:36;;;;;;;2.90;1.70;;;;;;;11.04;86.44;96970.04;107892;1268;29361;-77
2022/09/01 03:41:08;;;;;;;3.80;1.80;;;;;;;11.12;86.57;96974.34;108000;1268;22545;-77
2022/09/01 03:43:39;;;;;;;5.50;2.20;;;;;;;11.23;86.70;96978.16;107983;1268;24293;-77
2022/09/01 03:46:14;;;;;;;3.90;1.70;;;;;;;11.32;86.73;96976.55;107985;1268;22560;-77
2022/09/01 03:48:47;;;;;;;3.30;2.10;;;;;;;11.38;86.87;96978.67;107971;1268;38349;-77
2022/09/01 03:51:21;;;;;;;3.60;2.00;;;;;;;11.42;86.67;96977.66;108044;1268;22595;-77
2022/09/01 03:53:55;;;;;;;3.70;2.60;;;;;;;11.38;86.54;96977.62;108070;1267;22561;-77
2022/09/01 03:56:28;;;;;;;12.80;7.70;;;;;;;11.27;86.52;96975.71;108016;1268;24173;-77
2022/09/01 03:59:01;;;;;;;15.10;10.00;;;;;;;11.13;86.64;96976.04;107930;1268;40167;-77
2022/09/01 04:01:36;;;;;;;14.90;10.50;;;;;;;11.02;86.79;96974.45;108004;1267;22527;-77
2022/09/01 04:04:07;;;;;;;11.50;9.20;;;;;;;10.93;87.14;96972.62;108002;1267;23746;-77
2022/09/01 04:06:40;;;;;;;10.90;7.30;;;;;;;10.92;87.31;96971.99;107981;1268;22620;-76
2022/09/01 04:09:11;;;;;;;5.90;4.50;;;;;;;10.92;87.41;96970.02;107928;1268;30409;-77
2022/09/01 04:11:45;;;;;;;5.70;3.60;;;;;;;10.93;87.46;96972.14;108027;1268;22566;-77
2022/09/01 04:14:16;;;;;;;6.10;3.60;;;;;;;10.95;87.41;96968.84;107979;1268;22527;-77
2022/09/01 04:19:38;;;;;;;5.70;3.80;;;;;;;11.03;87.59;96969.73;107978;1267;22553;-77
2022/09/01 04:22:12;;;;;;;2.60;2.20;;;;;;;11.12;87.59;96970.60;107993;1268;22604;-77
2022/09/01 04:24:45;;;;;;;3.70;2.30;;;;;;;11.11;87.15;96969.46;108028;1268;24131;-77
2022/09/01 04:27:22;;;;;;;3.40;2.00;;;;;;;11.09;87.06;96968.20;107924;1268;36380;-77
2022/09/01 04:29:55;;;;;;;4.40;2.10;;;;;;;11.06;87.02;96965.89;108048;1268;22613;-78
2022/09/01 04:32:27;;;;;;;3.30;2.30;;;;;;;11.05;87.07;96963.40;108097;1268;22689;-78
2022/09/01 04:34:59;;;;;;;4.60;2.00;;;;;;;11.05;87.11;96967.64;108101;1267;24531;-76
2022/09/01 04:37:30;;;;;;;4.40;1.90;;;;;;;11.04;87.16;96968.13;108036;1268;25235;-77
2022/09/01 04:40:01;;;;;;;5.40;2.10;;;;;;;11.01;87.18;96963.95;108124;1268;22582;-76
2022/09/01 04:42:35;;;;;;;3.20;2.00;;;;;;;10.98;87.24;96965.23;108148;1268;25460;-76
2022/09/01 04:45:12;;;;;;;4.00;2.30;;;;;;;10.96;87.33;96963.63;108172;1267;22557;-77
2022/09/01 04:47:45;;;;;;;5.10;2.10;;;;;;;11.01;87.35;96966.23;108041;1267;31231;-77
2022/09/01 04:50:16;;;;;;;4.10;2.10;;;;;;;11.10;87.27;96963.80;108040;1268;22604;-77
2022/09/01 04:52:50;;;;;;;4.30;2.40;;;;;;;11.20;87.33;96970.33;108006;1270;22533;-77
2022/09/01 04:55:23;;;;;;;4.20;1.90;;;;;;;11.27;87.22;96975.35;108023;1268;22560;-77
2022/09/01 04:57:56;;;;;;;3.40;2.10;;;;;;;11.26;86.97;96975.23;107977;1268;32515;-77
2022/09/01 05:00:31;;;;;;;4.40;2.00;;;;;;;11.27;87.08;96969.35;108084;1268;25678;-77
2022/09/01 05:03:04;;;;;;;6.40;3.40;;;;;;;11.35;87.08;96969.47;108085;1268;24194;-77
2022/09/01 05:05:41;;;;;;;4.50;2.60;;;;;;;11.35;86.99;96974.08;108040;1268;25249;-77
2022/09/01 05:08:19;;;;;;;5.80;2.50;;;;;;;11.39;87.11;96980.96;108083;1267;24497;-77
2022/09/01 05:10:54;;;;;;;4.90;2.40;;;;;;;11.48;87.17;96980.23;108023;1268;22563;-77
2022/09/01 05:13:26;;;;;;;5.50;2.30;;;;;;;11.49;86.81;96982.61;107961;1268;22917;-77
2022/09/01 05:16:04;;;;;;;4.40;2.30;;;;;;;11.31;86.35;96986.79;108018;1268;22527;-76
2022/09/01 05:18:36;;;;;;;6.90;2.60;;;;;;;11.17;86.64;96984.78;107991;1268;33107;-76
2022/09/01 05:21:09;;;;;;;3.30;2.10;;;;;;;11.26;87.25;96986.80;108160;1268;25305;-77
2022/09/01 05:23:42;;;;;;;2.40;1.80;;;;;;;11.51;87.47;96989.66;108077;1268;22525;-77
2022/09/01 05:26:17;;;;;;;4.30;2.40;;;;;;;11.88;87.55;96990.71;108163;1267;22707;-77
2022/09/01 05:28:52;;;;;;;4.30;2.30;;;;;;;12.81;88.46;96991.10;108027;1268;26444;-77
2022/09/01 05:31:33;;;;;;;4.20;2.30;;;;;;;14.53;88.83;96989.14;108111;1268;22547;-77
2022/09/01 05:34:03;;;;;;;;;;;;;;;16.96;87.49;96984.71;108149;1267;25216;-76
2022/09/01 05:36:35;;;;;;;3.10;2.10;;;;;;;18.97;83.63;96980.45;108023;1268;22510;-76
2022/09/01 05:39:09;;;;;;;4.80;2.20;;;;;;;20.62;79.48;96978.73;107958;1267;36134;-77
2022/09/01 05:41:41;;;;;;;3.70;2.20;;;;;;;21.79;74.83;96974.61;108012;1268;22540;-78
2022/09/01 05:44:12;;;;;;;4.30;2.50;;;;;;;22.65;70.51;96981.29;108016;1268;22532;-77
2022/09/01 05:46:45;;;;;;;4.90;2.50;;;;;;;23.29;67.42;96986.52;108057;1267;23482;-77
2022/09/01 05:49:17;;;;;;;4.20;2.50;;;;;;;23.98;65.11;96981.94;107962;1268;25225;-77
2022/09/01 05:51:51;;;;;;;6.80;2.40;;;;;;;24.42;61.25;96988.39;108039;1268;22554;-76
2022/09/01 05:54:26;;;;;;;6.50;3.00;;;;;;;24.48;58.58;96992.23;108002;1268;22540;-76
2022/09/01 05:56:58;;;;;;;2.70;2.40;;;;;;;24.68;57.87;96996.31;107906;1267;22685;-76
2022/09/01 05:59:30;;;;;;;6.30;2.20;;;;;;;24.96;55.20;96994.94;107945;1267;22524;-77
2022/09/01 06:02:03;;;;;;;3.40;2.30;;;;;;;25.05;52.55;96998.60;107979;1270;22515;-77
2022/09/01 06:04:34;;;;;;;3.90;2.30;;;;;;;24.72;50.57;96997.32;108060;1268;22632;-77
2022/09/01 06:07:06;;;;;;;3.90;2.30;;;;;;;24.60;49.55;96996.86;107975;1268;36538;-77
2022/09/01 06:09:41;;;;;;;4.30;2.80;;;;;;;24.69;49.86;97000.14;107991;1268;25240;-77
2022/09/01 06:12:20;;;;;;;5.30;2.70;;;;;;;25.16;50.17;96997.69;107934;1267;25446;-78
2022/09/01 06:14:53;;;;;;;5.10;2.40;;;;;;;26.01;49.56;96998.70;108051;1268;22661;-77
2022/09/01 06:17:26;;;;;;;3.80;2.60;;;;;;;26.15;46.83;96998.48;107964;1267;36857;-77
2022/09/01 06:19:58;;;;;;;6.00;2.70;;;;;;;25.94;44.89;97001.95;107962;1268;24275;-77
2022/09/01 06:22:30;;;;;;;4.70;2.70;;;;;;;25.65;44.32;97001.46;108018;1268;25343;-77
2022/09/01 06:25:05;;;;;;;3.50;2.20;;;;;;;25.39;44.29;97007.98;108039;1268;22970;-77
2022/09/01 06:27:41;;;;;;;3.90;2.30;;;;;;;25.45;44.00;97008.84;107983;1265;25191;-78
2022/09/01 06:30:19;;;;;;;4.00;2.40;;;;;;;24.44;44.29;97010.65;107963;1268;22537;-77
2022/09/01 06:32:50;;;;;;;3.70;2.20;;;;;;;23.59;44.82;97013.27;108013;1267;22644;-77
2022/09/01 06:35:28;;;;;;;3.50;2.50;;;;;;;22.31;46.39;97011.41;108035;1268;22584;-76
2022/09/01 06:38:00;;;;;;;4.20;2.70;;;;;;;20.94;48.03;97011.31;107897;1268;41917;-76
2022/09/01 06:40:32;;;;;;;3.30;2.40;;;;;;;19.95;49.98;97013.91;107924;1268;22572;-77
2022/09/01 06:43:06;;;;;;;3.60;2.40;;;;;;;19.12;51.76;97018.72;107896;1267;23684;-77
2022/09/01 06:45:42;;;;;;;4.40;2.40;;;;;;;18.73;53.44;97024.18;107843;1268;22519;-76
2022/09/01 06:48:14;;;;;;;6.40;2.60;;;;;;;18.12;54.44;97021.04;107889;1268;36975;-77
2022/09/01 06:50:46;;;;;;;8.50;2.90;;;;;;;17.60;56.38;97023.61;107987;1268;22542;-76
2022/09/01 06:53:20;;;;;;;5.20;2.90;;;;;;;17.32;56.95;97026.45;107895;1268;22569;-77
2022/09/01 06:55:52;;;;;;;5.80;3.30;;;;;;;17.08;58.77;97033.74;107852;1267;22592;-76
2022/09/01 06:58:24;;;;;;;3.60;2.10;;;;;;;16.96;59.62;97034.98;107778;1268;27621;-77
2022/09/01 07:00:55;;;;;;;4.70;2.80;;;;;;;16.53;60.59;97035.19;107896;1268;22713;-77
2022/09/01 07:03:27;;;;;;;4.90;3.00;;;;;;;16.11;61.77;97031.63;107866;1267;22544;-76
2022/09/01 07:05:58;;;;;;;4.80;3.00;;;;;;;16.31;62.72;97028.48;107841;1268;22612;-76
2022/09/01 07:08:38;;;;;;;4.40;2.80;;;;;;;16.56;62.69;97029.45;107784;1268;23778;-76
2022/09/01 07:11:26;;;;;;;5.50;3.10;;;;;;;16.71;62.50;97028.61;107785;1268;22616;-76
2022/09/01 07:14:00;;;;;;;5.30;2.70;;;;;;;17.03;62.44;97027.80;107871;1268;22540;-76
2022/09/01 07:16:39;;;;;;;4.00;2.60;;;;;;;16.84;62.56;97026.67;107843;1268;25365;-76
2022/09/01 07:19:13;;;;;;;4.10;2.60;;;;;;;17.66;63.31;97029.36;107798;1267;27898;-77
2022/09/01 07:21:45;;;;;;;5.10;2.70;;;;;;;19.60;60.96;97026.53;107802;1268;22615;-76
2022/09/01 07:24:17;;;;;;;3.40;2.40;;;;;;;21.07;56.89;97020.45;107892;1268;25558;-77
2022/09/01 07:26:49;;;;;;;5.90;2.30;;;;;;;22.49;56.77;97017.55;107858;1268;22717;-77
2022/09/01 07:29:25;;;;;;;4.80;2.50;;;;;;;24.83;54.77;97010.63;107808;1268;24289;-77
2022/09/01 07:31:56;;;;;;;5.10;2.30;;;;;;;27.10;49.38;97011.69;107774;1270;22567;-77
2022/09/01 07:34:28;;;;;;;5.00;2.30;;;;;;;27.56;44.55;97014.23;107855;1267;26472;-78
2022/09/01 07:36:59;;;;;;;3.70;2.10;;;;;;;28.92;46.44;97006.61;107782;1270;22554;-78
2022/09/01 07:39:31;;;;;;;3.80;2.00;;;;;;;30.72;43.82;97003.49;107835;1268;23842;-78
2022/09/01 07:42:08;;;;;;;3.30;2.10;;;;;;;31.02;39.96;97005.05;107790;1270;22536;-79
2022/09/01 07:44:40;;;;;;;2.30;2.10;;;;;;;31.50;39.00;97006.48;107867;1268;22531;-78
2022/09/01 07:47:14;;;;;;;3.20;2.00;;;;;;;31.14;36.42;97008.25;107736;1268;25407;-78
2022/09/01 07:49:45;;;;;;;4.30;2.50;;;;;;;31.23;34.41;97010.15;107863;1267;24091;-78
2022/09/01 07:52:16;;;;;;;2.70;2.10;;;;;;;31.08;36.37;97006.95;107864;1268;22519;-78
2022/09/01 07:54:48;;;;;;;2.40;2.20;;;;;;;31.67;33.15;97006.95;107865;1267;22538;-78
2022/09/01 07:57:21;;;;;;;3.40;2.40;;;;;;;30.88;32.11;97008.35;107799;1267;26507;-78
2022/09/01 07:59:54;;;;;;;2.80;2.00;;;;;;;29.86;33.42;97001.22;107898;1267;22771;-78
2022/09/01 08:02:26;;;;;;;2.90;2.20;;;;;;;29.78;34.32;97007.18;107911;1268;23829;-78
2022/09/01 08:04:59;;;;;;;2.40;2.00;;;;;;;30.77;36.06;97008.09;107895;1267;23397;-78
2022/09/01 08:07:30;;;;;;;2.60;2.40;;;;;;;31.31;31.89;97005.06;107819;1268;24039;-77
2022/09/01 08:10:02;;;;;;;3.70;2.10;;;;;;;30.86;33.60;97005.39;107841;1268;22569;-78
2022/09/01 08:12:33;;;;;;;3.10;1.50;;;;;;;31.93;34.47;97005.02;107895;1268;24249;-78
2022/09/01 08:15:06;;;;;;;4.90;1.90;;;;;;;33.50;33.94;97005.76;107852;1267;22557;-78
2022/09/01 08:17:39;;;;;;;3.20;1.50;;;;;;;34.57;33.42;97003.23;107853;1270;29447;-78
2022/09/01 08:20:12;;;;;;;1.70;1.50;;;;;;;35.62;32.70;96999.11;107814;1268;22513;-78
2022/09/01 08:22:43;;;;;;;3.30;1.50;;;;;;;36.29;30.53;97002.03;107883;1268;22610;-78
2022/09/01 08:25:15;;;;;;;2.80;1.50;;;;;;;35.83;28.40;96999.44;107835;1268;22554;-78
2022/09/01 08:27:46;;;;;;;2.70;1.40;;;;;;;34.29;27.13;96999.05;107743;1271;34010;-78
2022/09/01 08:30:20;;;;;;;1.60;1.50;;;;;;;32.52;28.47;97005.48;107827;1267;25638;-78
2022/09/01 08:32:51;;;;;;;3.70;1.30;;;;;;;32.34;31.19;97007.39;107863;1268;25410;-78
2022/09/01 08:35:23;;;;;;;3.40;1.40;;;;;;;33.56;31.39;97007.08;107867;1268;25306;-78
2022/09/01 08:37:54;;;;;;;2.30;1.30;;;;;;;34.82;31.32;97008.49;107765;1268;27513;-78
2022/09/01 08:40:26;;;;;;;3.80;1.40;;;;;;;35.58;29.07;97008.36;107826;1268;27498;-78
2022/09/01 08:43:07;;;;;;;2.50;1.20;;;;;;;35.83;29.34;97012.52;107831;1268;22678;-78
2022/09/01 08:45:46;;;;;;;3.70;1.70;;;;;;;35.88;27.68;97013.27;107826;1268;26613;-78
2022/09/01 08:48:21;;;;;;;2.00;1.20;;;;;;;35.43;28.23;97015.92;107759;1270;24869;-78
2022/09/01 08:51:00;;;;;;;2.80;1.50;;;;;;;35.68;29.32;97017.31;107827;1268;24234;-79
2022/09/01 08:53:38;;;;;;;2.40;1.40;;;;;;;35.40;26.17;97016.65;107844;1268;22601;-77
2022/09/01 08:56:12;;;;;;;2.50;1.50;;;;;;;33.64;26.27;97020.64;107832;1268;22529;-78
2022/09/01 08:58:43;;;;;;;2.40;1.70;;;;;;;31.96;27.77;97021.21;107693;1269;26375;-78
2022/09/01 09:01:26;;;;;;;2.60;1.50;;;;;;;30.68;28.97;97017.62;107825;1268;25499;-78
2022/09/01 09:04:13;;;;;;;3.10;2.00;;;;;;;29.96;31.56;97020.57;107892;1270;24283;-79
2022/09/01 09:06:56;;;;;;;2.50;1.70;;;;;;;29.63;30.48;97025.20;107861;1268;22544;-77
2022/09/01 09:09:40;;;;;;;3.00;1.90;;;;;;;28.00;33.40;97024.40;107727;1268;25403;-77
2022/09/01 09:12:39;;;;;;;2.80;1.90;;;;;;;27.44;35.09;97020.86;108013;1270;25311;-77
2022/09/01 09:15:22;;;;;;;4.80;2.30;;;;;;;27.87;36.32;97013.83;107926;1268;22607;-78
2022/09/01 09:18:00;;;;;;;2.10;1.40;;;;;;;27.69;35.95;97020.48;107725;1270;29625;-78
2022/09/01 09:20:31;;;;;;;3.20;1.80;;;;;;;26.30;36.34;97019.78;107858;1269;22530;-77
2022/09/01 09:23:07;;;;;;;3.20;1.70;;;;;;;25.39;37.33;97016.81;107805;1270;22585;-78
2022/09/01 09:25:40;;;;;;;2.40;1.80;;;;;;;24.91;38.46;97016.18;107643;1268;22594;-77
2022/09/01 09:28:11;;;;;;;2.80;1.60;;;;;;;24.07;39.06;97018.65;107718;1268;31814;-77
2022/09/01 09:30:43;;;;;;;4.60;1.70;;;;;;;23.19;39.59;97024.23;107773;1270;22662;-75
2022/09/01 09:33:36;;;;;;;3.00;1.20;;;;;;;22.64;41.42;97018.25;107805;1268;24335;-75
2022/09/01 09:36:20;;;;;;;3.40;1.40;;;;;;;22.56;41.81;97017.66;107831;1267;22518;-74
2022/09/01 09:39:07;;;;;;;3.20;1.30;;;;;;;22.17;42.72;97011.44;107609;1268;30729;-74
2022/09/01 09:41:39;;;;;;;1.80;1.10;;;;;;;22.25;43.48;97014.36;107862;1268;23133;-75
2022/09/01 09:44:24;;;;;;;2.60;1.10;;;;;;;22.32;43.75;97009.83;107925;1267;24492;-74
2022/09/01 09:46:56;;;;;;;1.60;1.40;;;;;;;22.52;43.78;97016.39;107976;1267;22553;-75
2022/09/01 09:49:30;;;;;;;2.00;1.00;;;;;;;22.85;43.97;97015.10;107976;1268;28332;-75
2022/09/01 09:52:18;;;;;;;2.20;1.10;;;;;;;22.95;43.66;97019.40;108102;1267;22611;-75
2022/09/01 09:55:04;;;;;;;3.70;1.00;;;;;;;22.82;43.53;97018.44;108004;1267;23100;-75
2022/09/01 09:57:41;;;;;;;3.50;1.00;;;;;;;22.78;43.95;97016.00;107870;1267;23194;-74
2022/09/01 10:00:22;;;;;;;1.30;0.80;;;;;;;22.81;44.18;97014.38;107718;1267;22571;-78
2022/09/01 10:02:58;;;;;;;2.40;0.80;;;;;;;22.66;43.88;97018.30;107867;1268;22522;-78
2022/09/01 10:05:37;;;;;;;1.20;0.60;;;;;;;22.49;43.44;97011.54;107937;1270;25367;-77
2022/09/01 10:08:11;;;;;;;1.30;0.70;;;;;;;22.35;43.95;97011.79;107913;1267;28137;-78
2022/09/01 10:10:45;;;;;;;14.50;2.60;;;;;;;22.38;42.44;97009.14;107972;1268;22557;-77
2022/09/01 10:13:19;;;;;;;8.60;1.50;;;;;;;21.84;43.09;97007.52;107851;1268;25528;-77
2022/09/01 10:15:54;;;;;;;1.60;0.70;;;;;;;21.59;43.10;97009.58;107723;1268;22574;-77
2022/09/01 10:18:29;;;;;;;1.90;0.70;;;;;;;21.37;44.31;97014.73;107932;1268;37286;-77
2022/09/01 10:21:04;;;;;;;3.40;0.90;;;;;;;21.52;44.31;97005.48;107970;1267;24539;-78
2022/09/01 10:23:40;;;;;;;1.70;0.80;;;;;;;21.64;44.53;97004.45;107812;1268;22521;-77
2022/09/01 10:26:18;;;;;;;3.10;0.80;;;;;;;21.48;44.05;97009.30;107945;1267;22544;-74
2022/09/01 10:28:56;;;;;;;1.40;0.90;;;;;;;21.48;44.37;97003.60;107886;1268;40352;-77
2022/09/01 10:31:28;;;;;;;1.90;0.70;;;;;;;21.70;44.85;97000.39;108039;1268;22553;-78
2022/09/01 10:34:01;;;;;;;0.90;0.70;;;;;;;21.83;44.95;97004.13;108006;1268;24422;-77
2022/09/01 10:36:35;;;;;;;1.20;0.70;;;;;;;21.80;44.72;97003.23;107963;1267;22557;-77
2022/09/01 10:39:10;;;;;;;1.50;0.80;;;;;;;21.74;44.57;97005.70;107876;1268;29455;-77
2022/09/01 10:41:56;;;;;;;2.20;1.10;;;;;;;21.72;45.61;97004.69;108016;1267;25559;-76
2022/09/01 10:44:32;;;;;;;3.70;1.10;;;;;;;21.96;44.79;97000.23;107815;1268;25481;-76
2022/09/01 10:47:10;;;;;;;2.50;1.00;;;;;;;21.75;44.34;96996.15;107936;1267;38651;-77
2022/09/01 10:50:02;;;;;;;2.50;0.80;;;;;;;21.45;44.69;97000.89;108026;1267;22667;-78
2022/09/01 10:52:56;;;;;;;2.60;1.10;;;;;;;21.35;45.42;97001.05;107953;1266;22522;-74
2022/09/01 10:55:47;;;;;;;1.80;1.00;;;;;;;21.29;45.43;96999.38;107984;1268;22511;-74
2022/09/01 10:58:43;;;;;;;2.40;1.10;;;;;;;20.89;45.25;97000.40;107968;1268;23897;-75
2022/09/01 11:01:16;;;;;;;1.10;0.90;;;;;;;20.53;45.12;97000.26;108015;1268;24258;-75
2022/09/01 11:03:56;;;;;;;2.50;1.00;;;;;;;20.26;45.70;96994.82;107949;1268;22535;-74
2022/09/01 11:07:07;;;;;;;1.70;0.70;;;;;;;20.21;46.07;96992.42;107992;1267;22534;-74
2022/09/01 11:09:44;;;;;;;3.40;1.00;;;;;;;20.34;46.83;96992.03;107902;1268;22539;-75
2022/09/01 11:12:48;;;;;;;2.50;0.90;;;;;;;20.52;46.58;96991.59;107985;1267;22540;-75
2022/09/01 11:15:41;;;;;;;1.70;0.70;;;;;;;20.39;45.85;96989.52;107791;1267;22684;-75
2022/09/01 11:18:19;;;;;;;1.10;0.60;;;;;;;20.28;47.29;96988.22;107977;1267;32800;-75
2022/09/01 11:20:50;;;;;;;1.40;0.80;;;;;;;20.26;46.68;96991.66;107921;1268;22567;-74
2022/09/01 11:23:29;;;;;;;1.50;0.60;;;;;;;20.04;46.72;96990.96;107839;1267;22621;-73
2022/09/01 11:26:02;;;;;;;1.40;0.90;;;;;;;19.97;47.74;96994.08;107954;1268;22534;-73
2022/09/01 11:28:45;;;;;;;4.50;1.00;;;;;;;20.02;47.94;96995.89;107883;1267;24449;-72
2022/09/01 11:31:38;;;;;;;3.70;2.30;;;;;;;20.04;48.32;96992.81;107913;1267;25278;-73
2022/09/01 11:34:19;;;;;;;3.50;2.00;;;;;;;20.04;47.85;96994.73;108065;1267;22521;-72
2022/09/01 11:36:54;;;;;;;2.40;1.50;;;;;;;20.07;48.59;96989.23;107984;1267;22689;-73
2022/09/01 11:39:34;;;;;;;2.30;1.30;;;;;;;20.16;48.39;96989.88;107946;1268;24318;-72
2022/09/01 11:42:13;;;;;;;2.60;1.70;;;;;;;20.08;47.63;96985.67;108033;1267;22537;-72
2022/09/01 11:44:49;;;;;;;1.80;1.20;;;;;;;19.77;48.02;96984.28;108077;1267;22532;-73
2022/09/01 11:47:26;;;;;;;1.60;0.90;;;;;;;19.83;48.55;96981.83;107948;1268;32629;-73
2022/09/01 11:50:01;;;;;;;1.60;0.80;;;;;;;20.07;47.89;96978.30;107989;1268;22524;-73
2022/09/01 11:52:36;;;;;;;2.20;1.10;;;;;;;20.24;47.48;96976.81;107937;1267;22533;-74
2022/09/01 11:55:10;;;;;;;3.80;1.90;;;;;;;20.26;47.80;96976.19;107906;1267;22566;-73
2022/09/01 11:57:42;;;;;;;1.20;0.80;;;;;;;20.31;47.69;96975.30;107855;1268;37559;-73
2022/09/01 12:00:25;;;;;;;2.20;1.00;;;;;;;20.21;46.97;96974.81;107900;1268;22527;-76
2022/09/01 12:02:56;;;;;;;1.80;0.90;;;;;;;20.19;47.18;96975.13;107955;1270;24221;-77
2022/09/01 12:05:31;;;;;;;2.10;0.80;;;;;;;20.28;47.59;96975.73;107946;1267;22633;-76